Time;durP1;ratioP1;P1;durP2;ratioP2;P2;SDS_P1;SDS_P2;PMS_P1;PMS_P2;Temp;Humidity;BMP_temperature;BMP_pressure;BME280_temperature;BME280_humidity;BME280_pressure;Samples;Min_cycle;Max_cycle;Signal;HPM_P1;HPM_P2
2022/12/12 00:01:09;;;;;;;;;;;1.50;99.90;;;;;;5078611;28;19911;-79
2022/12/12 00:03:35;;;;;;;;;;;1.50;99.90;;;;;;5077135;28;19904;-79
2022/12/12 00:06:03;;;;;;;;;;;1.50;99.90;;;;;;5078366;28;20339;-79
2022/12/12 00:08:29;;;;;;;;;;;1.50;99.90;;;;;;5078588;28;19904;-79
2022/12/12 00:10:54;;;;;;;;;;;1.40;99.90;;;;;;5076287;28;19954;-79
2022/12/12 00:13:20;;;;;;;;;;;1.40;99.90;;;;;;5077113;28;19912;-79
2022/12/12 00:15:45;;;;;;;;;;;1.50;99.90;;;;;;5075697;28;19914;-79
2022/12/12 00:18:11;;;;;;;;;;;1.40;99.90;;;;;;5076208;28;19905;-79
2022/12/12 00:20:36;;;;;;;;;;;1.40;99.90;;;;;;5077341;28;19961;-79
2022/12/12 00:23:02;;;;;;;;;;;1.50;99.90;;;;;;5076029;28;20386;-79
2022/12/12 00:25:27;;;;;;;;;;;1.50;99.90;;;;;;5077232;28;19908;-79
2022/12/12 00:27:53;;;;;;;;;;;1.50;99.90;;;;;;5077298;28;19911;-79
2022/12/12 00:30:18;;;;;;;;;;;1.50;99.90;;;;;;5077442;28;19944;-79
2022/12/12 00:32:44;;;;;;;;;;;1.50;99.90;;;;;;5076126;28;20293;-79
2022/12/12 00:35:09;;;;;;;;;;;1.50;99.90;;;;;;5076993;28;19905;-79
2022/12/12 00:37:34;;;;;;;;;;;1.40;99.90;;;;;;5075681;28;19958;-79
2022/12/12 00:40:00;;;;;;;;;;;1.40;99.90;;;;;;5077260;28;19995;-79
2022/12/12 00:42:26;;;;;;;;;;;1.40;99.90;;;;;;5076179;28;20271;-79
2022/12/12 00:44:51;;;;;;;;;;;1.40;99.90;;;;;;5077362;28;19904;-79
2022/12/12 00:47:17;;;;;;;;;;;1.40;99.90;;;;;;5075787;28;19947;-79
2022/12/12 00:49:42;;;;;;;;;;;3.10;99.90;;;;;;5075903;28;20271;-79
2022/12/12 00:52:08;;;;;;;;;;;1.40;99.90;;;;;;5074629;28;19905;-79
2022/12/12 00:54:33;;;;;;;;;;;1.40;99.90;;;;;;5075312;28;19911;-79
2022/12/12 00:56:59;;;;;;;;;;;1.30;99.90;;;;;;5076446;28;19958;-79
2022/12/12 00:59:24;;;;;;;;;;;1.20;99.90;;;;;;5075371;28;19995;-79
2022/12/12 01:01:50;;;;;;;;;;;1.30;99.90;;;;;;5075201;28;19905;-79
2022/12/12 01:04:15;;;;;;;;;;;1.30;99.90;;;;;;5075309;28;20374;-79
2022/12/12 01:06:40;;;;;;;;;;;1.30;99.90;;;;;;5075248;28;19950;-79
2022/12/12 01:09:06;;;;;;;;;;;1.20;99.90;;;;;;5075017;28;19904;-79
2022/12/12 01:11:31;;;;;;;;;;;1.20;99.90;;;;;;5076433;28;19951;-79
2022/12/12 01:13:57;;;;;;;;;;;1.10;99.90;;;;;;5076752;28;19915;-79
2022/12/12 01:16:23;;;;;;;;;;;1.10;99.90;;;;;;5075271;28;20314;-79
2022/12/12 01:18:49;;;;;;;;;;;1.00;99.90;;;;;;5074814;28;20374;-79
2022/12/12 01:21:16;;;;;;;;;;;1.00;99.90;;;;;;5076003;28;19912;-78
2022/12/12 01:23:41;;;;;;;;;;;1.00;99.90;;;;;;5076008;28;20378;-79
2022/12/12 01:26:09;;;;;;;;;;;0.70;99.90;;;;;;5074699;28;19947;-78
2022/12/12 01:28:34;;;;;;;;;;;0.90;99.90;;;;;;5074646;28;20386;-78
2022/12/12 01:31:00;;;;;;;;;;;0.90;99.90;;;;;;5074642;28;19995;-78
2022/12/12 01:33:26;;;;;;;;;;;0.90;99.90;;;;;;5075849;28;19911;-78
2022/12/12 01:35:52;;;;;;;;;;;0.90;99.90;;;;;;5074219;28;19912;-78
2022/12/12 01:38:17;;;;;;;;;;;2.80;99.90;;;;;;5075707;28;19908;-78
2022/12/12 01:40:43;;;;;;;;;;;0.90;99.90;;;;;;5076245;28;19905;-78
2022/12/12 01:43:12;;;;;;;;;;;0.90;99.90;;;;;;5075993;28;19908;-78
2022/12/12 01:45:56;;;;;;;;;;;0.90;99.90;;;;;;5075456;28;19916;-78
2022/12/12 01:48:23;;;;;;;;;;;0.90;99.90;;;;;;5075601;28;19927;-78
2022/12/12 01:50:49;;;;;;;;;;;0.90;99.90;;;;;;5076996;28;19908;-78
2022/12/12 01:53:16;;;;;;;;;;;0.90;99.90;;;;;;5076483;28;19995;-79
2022/12/12 01:55:41;;;;;;;;;;;0.90;99.90;;;;;;5075280;28;19911;-79
2022/12/12 01:58:07;;;;;;;;;;;0.90;99.90;;;;;;5077028;28;19908;-78
2022/12/12 02:00:32;;;;;;;;;;;1.80;99.90;;;;;;5075046;28;20017;-79
2022/12/12 02:02:58;;;;;;;;;;;2.50;99.90;;;;;;5075441;28;19959;-80
2022/12/12 02:05:33;;;;;;;;;;;2.80;99.90;;;;;;5075879;28;19904;-79
2022/12/12 02:08:00;;;;;;;;;;;0.90;99.90;;;;;;5076652;28;20058;-79
2022/12/12 02:10:25;;;;;;;;;;;0.90;99.90;;;;;;5074989;28;20054;-79
2022/12/12 02:12:55;;;;;;;;;;;2.20;99.90;;;;;;5074806;28;19955;-79
2022/12/12 02:15:21;;;;;;;;;;;2.20;99.90;;;;;;5075983;28;19911;-78
2022/12/12 02:17:59;;;;;;;;;;;0.80;99.90;;;;;;5074687;28;20440;-78
2022/12/12 02:20:43;;;;;;;;;;;0.80;99.90;;;;;;5075691;28;19905;-78
2022/12/12 02:23:27;;;;;;;;;;;0.80;99.90;;;;;;5074500;28;19919;-78
2022/12/12 02:25:59;;;;;;;;;;;0.80;99.90;;;;;;5074649;28;19904;-78
2022/12/12 02:28:27;;;;;;;;;;;0.70;99.90;;;;;;5075726;28;20355;-78
2022/12/12 02:31:07;;;;;;;;;;;0.60;99.90;;;;;;5076329;28;19908;-78
2022/12/12 02:33:41;;;;;;;;;;;0.60;99.90;;;;;;5076021;28;19904;-78
2022/12/12 02:36:07;;;;;;;;;;;0.50;99.90;;;;;;5074281;28;19943;-78
2022/12/12 02:38:38;;;;;;;;;;;0.50;99.90;;;;;;5075646;28;19922;-78
2022/12/12 02:41:13;;;;;;;;;;;0.40;99.90;;;;;;5074500;28;19904;-79
2022/12/12 02:43:57;;;;;;;;;;;0.30;99.90;;;;;;5074547;28;20382;-78
2022/12/12 02:46:33;;;;;;;;;;;0.20;99.90;;;;;;5073868;28;20352;-78
2022/12/12 02:48:58;;;;;;;;;;;0.20;99.90;;;;;;5074240;28;19904;-79
2022/12/12 02:51:25;;;;;;;;;;;0.20;99.90;;;;;;5073160;28;19912;-78
2022/12/12 02:53:51;;;;;;;;;;;0.20;99.90;;;;;;5075022;28;19908;-78
2022/12/12 02:56:35;;;;;;;;;;;0.20;99.90;;;;;;5075151;28;19914;-78
2022/12/12 02:59:00;;;;;;;;;;;0.20;99.90;;;;;;5073465;28;20355;-79
2022/12/12 03:01:37;;;;;;;;;;;0.20;99.90;;;;;;5075425;28;19954;-78
2022/12/12 03:09:37;;;;;;;;;;;0.20;99.90;;;;;;5074778;28;20393;-78
2022/12/12 03:12:07;;;;;;;;;;;0.10;99.90;;;;;;5073392;28;19904;-79
2022/12/12 03:14:37;;;;;;;;;;;0.00;99.90;;;;;;5074753;28;19908;-79
2022/12/12 03:17:14;;;;;;;;;;;0.00;99.90;;;;;;5074850;28;20007;-79
2022/12/12 03:19:46;;;;;;;;;;;-0.10;99.90;;;;;;5074892;28;19905;-79
2022/12/12 03:22:25;;;;;;;;;;;-0.10;99.90;;;;;;5074564;28;19904;-79
2022/12/12 03:24:54;;;;;;;;;;;-0.10;99.90;;;;;;5074777;28;19958;-79
2022/12/12 03:27:22;;;;;;;;;;;-0.10;99.90;;;;;;5073232;28;19911;-79
2022/12/12 03:29:54;;;;;;;;;;;-0.20;99.90;;;;;;5073392;28;20377;-79
2022/12/12 03:32:28;;;;;;;;;;;-0.30;99.90;;;;;;5074532;28;19904;-79
2022/12/12 03:35:09;;;;;;;;;;;-0.30;99.90;;;;;;5074749;28;19911;-78
2022/12/12 03:37:41;;;;;;;;;;;-0.40;99.90;;;;;;5074421;28;20310;-79
2022/12/12 03:40:10;;;;;;;;;;;-0.40;99.90;;;;;;5074480;28;20418;-78
2022/12/12 03:42:41;;;;;;;;;;;-0.40;99.90;;;;;;5074567;28;20066;-78
2022/12/12 03:45:11;;;;;;;;;;;-0.50;99.90;;;;;;5074364;28;20256;-78
2022/12/12 03:47:51;;;;;;;;;;;-0.50;99.90;;;;;;5074254;28;19912;-78
2022/12/12 03:50:17;;;;;;;;;;;-0.60;99.90;;;;;;5074231;28;19912;-79
2022/12/12 03:53:04;;;;;;;;;;;-0.60;99.90;;;;;;5074228;28;19904;-79
2022/12/12 03:55:42;;;;;;;;;;;-0.70;99.90;;;;;;5072830;28;20394;-78
2022/12/12 03:58:11;;;;;;;;;;;-0.70;99.90;;;;;;5073185;28;20277;-78
2022/12/12 04:00:38;;;;;;;;;;;-0.70;99.90;;;;;;5073005;28;19904;-78
2022/12/12 04:03:04;;;;;;;;;;;-0.80;99.90;;;;;;5074505;28;19912;-78
2022/12/12 04:06:25;;;;;;;;;;;-0.80;99.90;;;;;;5073981;28;20282;-78
2022/12/12 04:08:28;;;;;;;;;;;-0.90;99.90;;;;;;5073978;28;19915;-78
2022/12/12 04:13:56;;;;;;;;;;;-0.90;99.90;;;;;;5074717;28;19911;-78
2022/12/12 04:16:29;;;;;;;;;;;-1.00;99.90;;;;;;5072832;28;19908;-78
2022/12/12 04:18:57;;;;;;;;;;;-1.00;99.90;;;;;;5073926;28;20362;-79
2022/12/12 04:24:34;;;;;;;;;;;-1.10;99.90;;;;;;5081769;23;19967;-78
2022/12/12 04:27:09;;;;;;;;;;;-1.10;99.90;;;;;;5075666;28;20429;-79
2022/12/12 04:29:43;;;;;;;;;;;-1.10;99.90;;;;;;5077821;28;19904;-79
2022/12/12 04:32:27;;;;;;;;;;;-1.10;99.90;;;;;;5078134;28;19908;-79
2022/12/12 04:35:02;;;;;;;;;;;-1.10;99.90;;;;;;5076721;28;19904;-79
2022/12/12 04:37:33;;;;;;;;;;;-1.20;99.90;;;;;;5077974;28;19912;-79
2022/12/12 04:40:01;;;;;;;;;;;-1.20;99.90;;;;;;5076129;28;19909;-79
2022/12/12 04:42:28;;;;;;;;;;;-1.20;99.90;;;;;;5075927;28;20288;-79
2022/12/12 04:44:56;;;;;;;;;;;-1.20;99.90;;;;;;5075828;28;19911;-79
2022/12/12 04:47:22;;;;;;;;;;;-1.20;99.90;;;;;;5075897;28;19904;-79
2022/12/12 04:49:48;;;;;;;;;;;-1.20;99.90;;;;;;5076823;28;20057;-79
2022/12/12 04:52:15;;;;;;;;;;;-1.30;99.90;;;;;;5076918;28;19905;-79
2022/12/12 04:54:47;;;;;;;;;;;-1.30;99.90;;;;;;5076938;28;19944;-79
2022/12/12 04:57:17;;;;;;;;;;;-1.30;99.90;;;;;;5075283;28;19961;-79
2022/12/12 04:59:44;;;;;;;;;;;-1.30;99.90;;;;;;5077257;28;19908;-78
2022/12/12 05:02:19;;;;;;;;;;;-1.30;99.90;;;;;;5076739;28;20283;-78
2022/12/12 05:05:00;;;;;;;;;;;-1.30;99.90;;;;;;5075100;28;20387;-78
2022/12/12 05:07:35;;;;;;;;;;;-1.30;99.90;;;;;;5075175;28;19944;-79
2022/12/12 05:10:00;;;;;;;;;;;-1.40;99.90;;;;;;5076229;28;19957;-79
2022/12/12 05:12:26;;;;;;;;;;;-1.40;99.90;;;;;;5074720;28;19904;-78
2022/12/12 05:14:51;;;;;;;;;;;-1.50;99.90;;;;;;5076439;28;19919;-78
2022/12/12 05:17:21;;;;;;;;;;;-1.50;99.90;;;;;;5074725;28;19966;-79
2022/12/12 05:19:47;;;;;;;;;;;-1.50;99.90;;;;;;5074739;28;19904;-78
2022/12/12 05:22:12;;;;;;;;;;;-1.50;99.90;;;;;;5074760;28;19905;-78
2022/12/12 05:24:37;;;;;;;;;;;-1.50;99.90;;;;;;5075994;28;19916;-79
2022/12/12 05:27:04;;;;;;;;;;;-1.50;99.90;;;;;;5074846;28;19904;-79
2022/12/12 05:29:30;;;;;;;;;;;-1.60;99.90;;;;;;5075499;28;19912;-79
2022/12/12 05:31:56;;;;;;;;;;;-1.60;99.90;;;;;;5076089;28;19957;-79
2022/12/12 05:34:22;;;;;;;;;;;-1.70;99.90;;;;;;5074785;28;20404;-79
2022/12/12 05:36:47;;;;;;;;;;;-1.60;99.90;;;;;;5074522;28;19908;-79
2022/12/12 05:39:13;;;;;;;;;;;-1.70;99.90;;;;;;5074918;28;19911;-79
2022/12/12 05:41:38;;;;;;;;;;;-1.70;99.90;;;;;;5075969;28;19931;-79
2022/12/12 05:44:04;;;;;;;;;;;-1.90;99.90;;;;;;5074974;28;19911;-79
2022/12/12 05:46:29;;;;;;;;;;;-1.70;99.90;;;;;;5075937;28;19990;-79
2022/12/12 05:48:55;;;;;;;;;;;-1.80;99.90;;;;;;5075486;28;19927;-79
2022/12/12 05:51:21;;;;;;;;;;;-1.90;99.90;;;;;;5075273;28;19954;-80
2022/12/12 05:53:46;;;;;;;;;;;-1.90;99.90;;;;;;5074034;28;19904;-79
2022/12/12 05:56:12;;;;;;;;;;;-1.90;99.90;;;;;;5073736;28;19908;-79
2022/12/12 05:58:41;;;;;;;;;;;-1.90;99.90;;;;;;5075861;28;19904;-79
2022/12/12 06:01:06;;;;;;;;;;;-1.90;99.90;;;;;;5075219;28;19905;-78
2022/12/12 06:03:32;;;;;;;;;;;-1.80;99.90;;;;;;5074256;28;20412;-79
2022/12/12 06:05:58;;;;;;;;;;;-1.90;99.90;;;;;;5074098;28;19911;-79
2022/12/12 06:08:23;;;;;;;;;;;-1.90;99.90;;;;;;5074053;28;19999;-79
2022/12/12 06:10:49;;;;;;;;;;;-1.90;99.90;;;;;;5073883;28;20001;-79
2022/12/12 06:13:14;;;;;;;;;;;-1.90;99.90;;;;;;5075415;28;19904;-79
2022/12/12 06:15:40;;;;;;;;;;;-1.90;99.90;;;;;;5075379;28;19904;-78
2022/12/12 06:18:06;;;;;;;;;;;-1.90;99.90;;;;;;5075109;28;20277;-78
2022/12/12 06:20:32;;;;;;;;;;;-1.90;99.90;;;;;;5073640;28;19911;-78
2022/12/12 06:22:57;;;;;;;;;;;-1.90;99.90;;;;;;5074639;28;19912;-78
2022/12/12 06:25:23;;;;;;;;;;;-1.90;99.90;;;;;;5074715;28;19909;-78
2022/12/12 06:27:49;;;;;;;;;;;-1.90;99.90;;;;;;5073651;28;19947;-77
2022/12/12 06:30:14;;;;;;;;;;;-2.00;99.90;;;;;;5074684;28;19904;-77
2022/12/12 06:32:39;;;;;;;;;;;-2.00;99.90;;;;;;5073560;28;20255;-76
2022/12/12 06:35:05;;;;;;;;;;;-2.00;99.90;;;;;;5073456;28;19912;-77
2022/12/12 06:37:30;;;;;;;;;;;-2.00;99.90;;;;;;5073309;28;19916;-77
2022/12/12 06:39:56;;;;;;;;;;;-2.00;99.90;;;;;;5074470;28;19904;-77
2022/12/12 06:42:21;;;;;;;;;;;-2.00;99.90;;;;;;5073149;28;19905;-77
2022/12/12 06:44:47;;;;;;;;;;;-2.00;99.90;;;;;;5074498;28;19904;-77
2022/12/12 06:47:12;;;;;;;;;;;-2.00;99.90;;;;;;5073016;28;19939;-77
2022/12/12 06:49:38;;;;;;;;;;;-2.00;99.90;;;;;;5072685;28;19908;-77
2022/12/12 06:52:03;;;;;;;;;;;-2.10;99.90;;;;;;5073823;28;19904;-78
2022/12/12 06:54:29;;;;;;;;;;;-2.10;99.90;;;;;;5073403;28;19904;-78
2022/12/12 06:56:54;;;;;;;;;;;-2.10;99.90;;;;;;5072915;28;19908;-78
2022/12/12 06:59:20;;;;;;;;;;;-2.10;99.90;;;;;;5074357;28;19904;-77
2022/12/12 07:01:46;;;;;;;;;;;-2.10;99.90;;;;;;5073082;28;20378;-77
2022/12/12 07:04:12;;;;;;;;;;;-2.10;99.90;;;;;;5075183;28;19904;-77
2022/12/12 07:06:37;;;;;;;;;;;-2.10;99.90;;;;;;5074279;28;19940;-77
2022/12/12 07:09:03;;;;;;;;;;;-2.10;99.90;;;;;;5073290;28;20386;-78
2022/12/12 07:11:29;;;;;;;;;;;-2.10;99.90;;;;;;5073195;28;19963;-78
2022/12/12 07:13:55;;;;;;;;;;;-2.10;99.90;;;;;;5074681;28;19904;-78
2022/12/12 07:16:21;;;;;;;;;;;-2.10;99.90;;;;;;5074296;28;19908;-78
2022/12/12 07:18:47;;;;;;;;;;;-2.10;99.90;;;;;;5072893;28;19904;-77
2022/12/12 07:21:15;;;;;;;;;;;-2.20;99.90;;;;;;5073131;28;20373;-77
2022/12/12 07:23:40;;;;;;;;;;;-2.20;99.90;;;;;;5072531;28;20364;-77
2022/12/12 07:26:08;;;;;;;;;;;-2.20;99.90;;;;;;5073993;28;19904;-77
2022/12/12 07:28:34;;;;;;;;;;;-2.20;99.90;;;;;;5074453;28;19911;-79
2022/12/12 07:31:03;;;;;;;;;;;-2.20;99.90;;;;;;5073229;28;19905;-78
2022/12/12 07:33:29;;;;;;;;;;;-2.10;99.90;;;;;;5073338;28;19915;-78
2022/12/12 07:36:00;;;;;;;;;;;-2.20;99.90;;;;;;5073422;28;20290;-78
2022/12/12 07:38:27;;;;;;;;;;;-2.10;99.90;;;;;;5072981;28;20338;-78
2022/12/12 07:40:52;;;;;;;;;;;-2.10;99.90;;;;;;5072613;28;19911;-78
2022/12/12 07:43:18;;;;;;;;;;;-2.10;99.90;;;;;;5075389;28;19909;-79
2022/12/12 07:45:43;;;;;;;;;;;-2.10;99.90;;;;;;5075792;28;19905;-78
2022/12/12 07:48:09;;;;;;;;;;;-2.10;99.90;;;;;;5073639;28;19905;-78
2022/12/12 07:50:36;;;;;;;;;;;-2.10;99.90;;;;;;5074595;28;20000;-79
2022/12/12 07:53:01;;;;;;;;;;;-2.10;99.90;;;;;;5072929;28;19909;-77
2022/12/12 07:55:27;;;;;;;;;;;-2.10;99.90;;;;;;5073868;28;19928;-78
2022/12/12 07:57:52;;;;;;;;;;;-2.00;99.90;;;;;;5072640;28;19912;-78
2022/12/12 08:00:18;;;;;;;;;;;-2.00;99.90;;;;;;5074177;28;20367;-76
2022/12/12 08:02:43;;;;;;;;;;;-2.00;99.90;;;;;;5076391;28;20278;-75
2022/12/12 08:05:09;;;;;;;;;;;-1.90;99.90;;;;;;5077873;28;19947;-75
2022/12/12 08:07:34;;;;;;;;;;;-1.90;99.90;;;;;;5077985;28;19905;-75
2022/12/12 08:10:00;;;;;;;;;;;-1.90;99.90;;;;;;5077789;28;19904;-75
2022/12/12 08:12:28;;;;;;;;;;;-1.90;99.90;;;;;;5078136;28;19905;-75
2022/12/12 08:14:54;;;;;;;;;;;-1.90;99.90;;;;;;5076564;28;19904;-75
2022/12/12 08:17:19;;;;;;;;;;;-1.90;99.90;;;;;;5077111;28;19908;-74
2022/12/12 08:19:45;;;;;;;;;;;-1.90;99.90;;;;;;5076411;28;19912;-75
2022/12/12 08:22:10;;;;;;;;;;;-1.80;99.90;;;;;;5076968;28;19904;-74
2022/12/12 08:24:36;;;;;;;;;;;-1.90;99.90;;;;;;5076387;28;20287;-74
2022/12/12 08:27:01;;;;;;;;;;;-1.90;99.90;;;;;;5076281;28;19904;-74
2022/12/12 08:29:27;;;;;;;;;;;-1.90;99.90;;;;;;5076290;28;20366;-74
2022/12/12 08:31:52;;;;;;;;;;;-1.80;99.90;;;;;;5077271;28;19904;-74
2022/12/12 08:34:18;;;;;;;;;;;-1.80;99.90;;;;;;5078358;28;19962;-74
2022/12/12 08:36:44;;;;;;;;;;;-1.80;99.90;;;;;;5076008;28;19909;-74
2022/12/12 08:39:11;;;;;;;;;;;-1.70;99.90;;;;;;5076268;28;19911;-74
2022/12/12 08:41:38;;;;;;;;;;;-1.70;99.90;;;;;;5077482;28;19904;-74
2022/12/12 08:44:04;;;;;;;;;;;-1.70;99.90;;;;;;5075811;28;19912;-74
2022/12/12 08:46:29;;;;;;;;;;;-1.70;99.90;;;;;;5077226;28;19904;-75
2022/12/12 08:48:55;;;;;;;;;;;-1.60;99.90;;;;;;5075837;28;19904;-75
2022/12/12 08:51:21;;;;;;;;;;;-1.60;99.90;;;;;;5076817;28;19911;-75
2022/12/12 08:53:47;;;;;;;;;;;-1.50;99.90;;;;;;5077127;28;19911;-75
2022/12/12 08:56:13;;;;;;;;;;;-1.50;99.90;;;;;;5076195;28;20295;-75
2022/12/12 08:58:38;;;;;;;;;;;-1.40;99.90;;;;;;5078434;28;19915;-75
2022/12/12 09:01:24;;;;;;;;;;;-1.50;99.90;;;;;;5077125;28;20385;-75
2022/12/12 09:03:50;;;;;;;;;;;-1.40;99.90;;;;;;5075670;28;20282;-75
2022/12/12 09:06:16;;;;;;;;;;;-1.40;99.90;;;;;;5076919;28;19911;-75
2022/12/12 09:08:42;;;;;;;;;;;-1.30;99.90;;;;;;5076803;28;19905;-75
2022/12/12 09:11:08;;;;;;;;;;;-1.30;99.90;;;;;;5077194;28;19912;-75
2022/12/12 09:13:34;;;;;;;;;;;-1.20;99.90;;;;;;5076796;28;20271;-78
2022/12/12 09:15:59;;;;;;;;;;;-1.10;99.90;;;;;;5076608;28;19912;-77
2022/12/12 09:18:25;;;;;;;;;;;-1.10;99.90;;;;;;5075465;28;19905;-78
2022/12/12 09:20:55;;;;;;;;;;;-1.10;99.90;;;;;;5076769;28;19904;-78
2022/12/12 09:23:21;;;;;;;;;;;-1.10;99.90;;;;;;5075880;28;19938;-78
2022/12/12 09:25:47;;;;;;;;;;;-1.00;99.90;;;;;;5076733;28;19910;-75
2022/12/12 09:28:14;;;;;;;;;;;-1.00;99.90;;;;;;5075496;28;19911;-75
2022/12/12 09:30:40;;;;;;;;;;;-1.00;99.90;;;;;;5076222;28;19915;-76
2022/12/12 09:33:05;;;;;;;;;;;-1.00;99.90;;;;;;5076334;28;19908;-76
2022/12/12 09:35:31;;;;;;;;;;;-1.00;99.90;;;;;;5075182;28;20378;-76
2022/12/12 09:37:56;;;;;;;;;;;-1.00;99.90;;;;;;5077238;28;19912;-75
2022/12/12 09:40:26;;;;;;;;;;;-1.00;99.90;;;;;;5076851;28;20377;-75
2022/12/12 09:42:51;;;;;;;;;;;-0.90;99.90;;;;;;5076862;28;19927;-77
2022/12/12 09:45:17;;;;;;;;;;;-0.90;99.90;;;;;;5075403;28;19904;-77
2022/12/12 09:47:44;;;;;;;;;;;-0.80;99.90;;;;;;5075730;28;19904;-77
2022/12/12 09:50:18;;;;;;;;;;;-0.80;99.90;;;;;;5076844;28;19912;-77
2022/12/12 09:52:44;;;;;;;;;;;-0.70;99.90;;;;;;5076489;28;19950;-77
2022/12/12 09:55:13;;;;;;;;;;;-0.70;99.90;;;;;;5077019;28;19904;-77
2022/12/12 09:57:57;;;;;;;;;;;-0.80;99.90;;;;;;5077210;28;19912;-77
2022/12/12 10:00:23;;;;;;;;;;;-0.70;99.90;;;;;;5075064;28;19904;-77
2022/12/12 10:03:07;;;;;;;;;;;-0.60;99.90;;;;;;5076208;28;19908;-77
2022/12/12 10:05:38;;;;;;;;;;;-0.60;99.90;;;;;;5076210;28;19916;-77
2022/12/12 10:08:10;;;;;;;;;;;-0.50;99.90;;;;;;5075221;28;19904;-77
2022/12/12 10:10:41;;;;;;;;;;;-0.50;99.90;;;;;;5075087;28;19911;-77
2022/12/12 10:13:13;;;;;;;;;;;-0.40;99.90;;;;;;5076099;28;19951;-77
2022/12/12 10:15:41;;;;;;;;;;;-0.40;99.90;;;;;;5076270;28;19915;-77
2022/12/12 10:18:11;;;;;;;;;;;-0.30;99.90;;;;;;5074898;28;19908;-77
2022/12/12 10:20:46;;;;;;;;;;;-0.30;99.90;;;;;;5076270;28;19947;-77
2022/12/12 10:23:14;;;;;;;;;;;-0.20;99.90;;;;;;5073731;28;19912;-77
2022/12/12 10:25:40;;;;;;;;;;;-0.20;99.90;;;;;;5074576;28;19909;-77
2022/12/12 10:28:13;;;;;;;;;;;-0.20;99.90;;;;;;5073980;28;19904;-77
2022/12/12 10:30:51;;;;;;;;;;;-0.20;99.90;;;;;;5076420;28;19908;-77
2022/12/12 10:33:26;;;;;;;;;;;-0.10;99.90;;;;;;5075805;28;19912;-77
2022/12/12 10:35:58;;;;;;;;;;;-0.10;99.90;;;;;;5075015;28;19904;-77
2022/12/12 10:38:42;;;;;;;;;;;0.00;99.90;;;;;;5074280;28;19905;-77
2022/12/12 10:41:13;;;;;;;;;;;0.00;99.90;;;;;;5074693;28;19904;-77
2022/12/12 10:43:44;;;;;;;;;;;0.00;99.90;;;;;;5074441;28;19935;-77
2022/12/12 10:46:48;;;;;;;;;;;0.10;99.90;;;;;;5074863;28;19905;-77
2022/12/12 10:49:15;;;;;;;;;;;0.10;99.90;;;;;;5034395;28;20412;-77
2022/12/12 10:51:41;;;;;;;;;;;0.10;99.90;;;;;;5035190;28;19905;-77
2022/12/12 10:54:13;;;;;;;;;;;0.20;99.90;;;;;;5053567;28;19904;-77
2022/12/12 10:56:58;;;;;;;;;;;0.30;99.90;;;;;;5075544;28;19912;-77
2022/12/12 10:59:24;;;;;;;;;;;0.30;99.90;;;;;;5074108;28;19905;-77
2022/12/12 11:01:56;;;;;;;;;;;0.20;99.90;;;;;;5075172;28;19908;-77
2022/12/12 11:04:22;;;;;;;;;;;0.30;99.90;;;;;;5076960;28;19904;-77
2022/12/12 11:06:49;;;;;;;;;;;0.30;99.90;;;;;;5075152;28;20270;-77
2022/12/12 11:09:17;;;;;;;;;;;0.30;99.90;;;;;;5076151;28;19904;-77
2022/12/12 11:12:21;;;;;;;;;;;0.40;99.90;;;;;;5075392;28;19905;-77
2022/12/12 11:14:48;;;;;;;;;;;0.40;99.90;;;;;;5016920;28;19905;-77
2022/12/12 11:17:27;;;;;;;;;;;0.50;99.90;;;;;;5016964;28;19909;-77
2022/12/12 11:19:54;;;;;;;;;;;0.60;99.90;;;;;;5056355;28;20359;-76
2022/12/12 11:22:19;;;;;;;;;;;0.60;99.90;;;;;;5075306;28;20363;-77
2022/12/12 11:24:46;;;;;;;;;;;0.60;99.90;;;;;;5075436;28;19957;-77
2022/12/12 11:27:23;;;;;;;;;;;0.70;99.90;;;;;;5073551;28;19948;-77
2022/12/12 11:29:53;;;;;;;;;;;0.80;99.90;;;;;;5073695;28;19912;-77
2022/12/12 11:32:31;;;;;;;;;;;0.80;99.90;;;;;;5073550;28;19938;-77
2022/12/12 11:35:00;;;;;;;;;;;0.80;99.90;;;;;;5076765;28;19904;-77
2022/12/12 11:37:31;;;;;;;;;;;0.90;99.90;;;;;;5079040;28;20378;-77
2022/12/12 11:39:57;;;;;;;;;;;1.00;99.90;;;;;;5079171;28;19912;-77
2022/12/12 11:42:27;;;;;;;;;;;1.00;99.90;;;;;;5079246;28;19905;-77
2022/12/12 11:45:00;;;;;;;;;;;1.00;99.90;;;;;;5079274;28;19911;-78
2022/12/12 11:47:55;;;;;;;;;;;1.10;99.90;;;;;;5079823;28;20003;-77
2022/12/12 11:50:22;;;;;;;;;;;1.10;99.90;;;;;;5071333;28;20010;-77
2022/12/12 11:52:48;;;;;;;;;;;1.20;99.90;;;;;;5079710;28;19939;-78
2022/12/12 11:55:15;;;;;;;;;;;1.30;99.90;;;;;;5078450;28;19904;-78
2022/12/12 11:57:49;;;;;;;;;;;1.40;99.90;;;;;;5079190;28;19968;-78
2022/12/12 12:00:14;;;;;;;;;;;1.40;99.90;;;;;;5078174;28;19944;-78
2022/12/12 12:02:49;;;;;;;;;;;1.50;99.90;;;;;;5076764;28;20359;-78
2022/12/12 12:05:20;;;;;;;;;;;1.50;99.90;;;;;;5077285;28;19969;-78
2022/12/12 12:07:54;;;;;;;;;;;1.60;99.90;;;;;;5078152;28;19904;-78
2022/12/12 12:10:43;;;;;;;;;;;1.60;99.90;;;;;;5079513;28;19970;-78
2022/12/12 12:13:23;;;;;;;;;;;1.60;99.90;;;;;;5069596;28;19908;-78
2022/12/12 12:15:55;;;;;;;;;;;1.70;99.90;;;;;;5079635;28;19962;-78
2022/12/12 12:18:25;;;;;;;;;;;1.80;99.90;;;;;;5080000;28;19904;-78
2022/12/12 12:21:14;;;;;;;;;;;1.80;99.90;;;;;;5079940;28;19904;-78
2022/12/12 12:23:39;;;;;;;;;;;1.80;99.90;;;;;;5072910;28;19934;-78
2022/12/12 12:26:11;;;;;;;;;;;1.90;99.90;;;;;;5077401;28;19991;-78
2022/12/12 12:28:55;;;;;;;;;;;1.80;99.90;;;;;;5077593;28;19911;-78
2022/12/12 12:31:30;;;;;;;;;;;2.00;99.90;;;;;;5078620;28;19966;-77
2022/12/12 12:34:24;;;;;;;;;;;2.10;99.90;;;;;;5079327;28;19908;-78
2022/12/12 12:37:14;;;;;;;;;;;2.20;99.90;;;;;;5063951;28;19931;-78
2022/12/12 12:39:58;;;;;;;;;;;2.20;99.90;;;;;;5077413;28;19904;-78
2022/12/12 12:42:39;;;;;;;;;;;2.30;99.90;;;;;;5078929;28;19904;-77
2022/12/12 12:45:16;;;;;;;;;;;2.30;99.90;;;;;;5078561;28;19995;-77
2022/12/12 12:47:47;;;;;;;;;;;2.20;99.90;;;;;;5077334;28;20378;-77
2022/12/12 12:50:13;;;;;;;;;;;2.40;99.90;;;;;;5076590;28;19954;-77
2022/12/12 12:52:40;;;;;;;;;;;2.50;99.90;;;;;;5078864;28;19920;-77
2022/12/12 12:55:15;;;;;;;;;;;2.60;99.90;;;;;;5078498;28;19889;-78
2022/12/12 12:57:45;;;;;;;;;;;2.60;99.90;;;;;;5079070;28;20386;-77
2022/12/12 13:00:15;;;;;;;;;;;2.60;99.90;;;;;;5079083;28;19948;-78
2022/12/12 13:02:52;;;;;;;;;;;2.70;99.90;;;;;;5077574;28;19904;-78
2022/12/12 13:05:36;;;;;;;;;;;2.70;99.90;;;;;;5078840;28;19911;-78
2022/12/12 13:08:16;;;;;;;;;;;2.70;99.90;;;;;;5076471;28;19974;-78
2022/12/12 13:10:46;;;;;;;;;;;2.80;99.90;;;;;;5077401;28;19905;-78
2022/12/12 13:13:18;;;;;;;;;;;2.70;99.90;;;;;;5078007;28;19912;-77
2022/12/12 13:15:46;;;;;;;;;;;2.80;99.90;;;;;;5076639;28;19905;-78
2022/12/12 13:18:13;;;;;;;;;;;2.80;99.90;;;;;;5076160;28;19912;-78
2022/12/12 13:20:49;;;;;;;;;;;2.80;99.90;;;;;;5077284;28;19904;-78
2022/12/12 13:23:14;;;;;;;;;;;2.90;99.90;;;;;;5078196;28;19912;-77
2022/12/12 13:25:53;;;;;;;;;;;2.90;99.90;;;;;;5078605;28;19930;-78
2022/12/12 13:28:27;;;;;;;;;;;2.90;99.90;;;;;;5077702;28;19904;-78
2022/12/12 13:30:52;;;;;;;;;;;2.90;99.90;;;;;;5077189;28;19904;-77
2022/12/12 13:33:26;;;;;;;;;;;2.80;99.90;;;;;;5077124;28;19995;-77
2022/12/12 13:35:53;;;;;;;;;;;2.60;99.90;;;;;;5076151;28;19904;-77
2022/12/12 13:38:24;;;;;;;;;;;2.50;99.90;;;;;;5077166;28;19909;-78
2022/12/12 13:41:00;;;;;;;;;;;2.40;99.90;;;;;;5076094;28;19909;-77
2022/12/12 13:43:27;;;;;;;;;;;2.30;99.90;;;;;;5076994;28;19912;-77
2022/12/12 13:45:53;;;;;;;;;;;2.20;99.90;;;;;;5076639;28;20287;-77
2022/12/12 13:48:24;;;;;;;;;;;2.10;99.90;;;;;;5077694;28;19965;-77
2022/12/12 13:51:09;;;;;;;;;;;2.00;99.90;;;;;;5078137;28;19908;-77
2022/12/12 13:53:35;;;;;;;;;;;1.90;99.90;;;;;;5077097;28;20363;-77
2022/12/12 13:56:24;;;;;;;;;;;1.90;99.90;;;;;;5076844;28;19904;-77
2022/12/12 13:58:49;;;;;;;;;;;1.90;99.90;;;;;;5072264;28;19904;-77
2022/12/12 14:01:26;;;;;;;;;;;2.40;99.90;;;;;;5076369;28;20283;-78
2022/12/12 14:03:51;;;;;;;;;;;2.50;99.90;;;;;;5077946;28;19912;-78
2022/12/12 14:06:17;;;;;;;;;;;3.00;99.90;;;;;;5075985;28;19904;-78
2022/12/12 14:08:47;;;;;;;;;;;3.50;99.90;;;;;;5077056;28;20280;-78
2022/12/12 14:11:22;;;;;;;;;;;3.90;99.90;;;;;;5077849;28;19904;-78
2022/12/12 14:13:49;;;;;;;;;;;4.10;99.90;;;;;;5075525;28;19943;-78
2022/12/12 14:16:16;;;;;;;;;;;4.10;99.90;;;;;;5075994;28;19962;-78
2022/12/12 14:18:50;;;;;;;;;;;4.10;99.90;;;;;;5076641;28;19904;-78
2022/12/12 14:21:17;;;;;;;;;;;4.20;99.90;;;;;;5076694;28;19904;-78
2022/12/12 14:23:44;;;;;;;;;;;4.20;99.90;;;;;;5074538;28;20050;-77
2022/12/12 14:26:39;;;;;;;;;;;4.10;99.90;;;;;;5076839;28;20432;-78
2022/12/12 14:29:16;;;;;;;;;;;4.00;99.90;;;;;;5066432;28;19912;-77
2022/12/12 14:32:00;;;;;;;;;;;3.80;99.90;;;;;;5077054;28;19905;-77
2022/12/12 14:34:26;;;;;;;;;;;3.50;99.90;;;;;;5074359;28;19904;-77
2022/12/12 14:36:51;;;;;;;;;;;3.10;99.90;;;;;;5076527;28;20385;-77
2022/12/12 14:39:35;;;;;;;;;;;3.00;99.90;;;;;;5075668;28;20378;-78
2022/12/12 14:42:03;;;;;;;;;;;2.90;99.90;;;;;;5074419;28;19905;-78
2022/12/12 14:44:29;;;;;;;;;;;2.90;99.90;;;;;;5074018;28;19916;-78
2022/12/12 14:46:58;;;;;;;;;;;2.80;99.90;;;;;;5073997;28;19905;-78
2022/12/12 14:49:23;;;;;;;;;;;2.70;99.90;;;;;;5074500;28;20315;-78